sensor_id;sensor_type;location;lat;lon;timestamp;P1;durP1;ratioP1;P2;durP2;ratioP2
51451;SDS011;37521;52.020;-1.740;2023-10-31T00:00:04;0.88;;;0.68;;
51451;SDS011;37521;52.020;-1.740;2023-10-31T00:02:35;0.65;;;0.63;;
51451;SDS011;37521;52.020;-1.740;2023-10-31T00:05:03;0.65;;;0.65;;
51451;SDS011;37521;52.020;-1.740;2023-10-31T00:07:34;0.80;;;0.47;;
51451;SDS011;37521;52.020;-1.740;2023-10-31T00:10:03;3.42;;;0.60;;
51451;SDS011;37521;52.020;-1.740;2023-10-31T00:12:32;0.43;;;0.43;;
51451;SDS011;37521;52.020;-1.740;2023-10-31T00:15:00;0.70;;;0.40;;
51451;SDS011;37521;52.020;-1.740;2023-10-31T00:17:29;1.10;;;0.57;;
51451;SDS011;37521;52.020;-1.740;2023-10-31T00:19:57;0.70;;;0.60;;
51451;SDS011;37521;52.020;-1.740;2023-10-31T00:22:25;1.15;;;0.93;;
51451;SDS011;37521;52.020;-1.740;2023-10-31T00:24:55;0.77;;;0.55;;
51451;SDS011;37521;52.020;-1.740;2023-10-31T00:27:24;6.82;;;0.93;;
51451;SDS011;37521;52.020;-1.740;2023-10-31T00:29:52;1.45;;;0.82;;
51451;SDS011;37521;52.020;-1.740;2023-10-31T00:32:21;0.98;;;0.55;;
51451;SDS011;37521;52.020;-1.740;2023-10-31T00:34:49;1.42;;;1.10;;
51451;SDS011;37521;52.020;-1.740;2023-10-31T00:37:17;2.60;;;0.90;;
51451;SDS011;37521;52.020;-1.740;2023-10-31T00:39:46;1.42;;;1.00;;
51451;SDS011;37521;52.020;-1.740;2023-10-31T00:42:16;1.13;;;1.02;;
51451;SDS011;37521;52.020;-1.740;2023-10-31T00:44:45;1.10;;;1.00;;
51451;SDS011;37521;52.020;-1.740;2023-10-31T00:47:13;1.83;;;0.70;;
51451;SDS011;37521;52.020;-1.740;2023-10-31T00:49:42;2.08;;;1.10;;
51451;SDS011;37521;52.020;-1.740;2023-10-31T00:52:10;0.60;;;0.60;;
51451;SDS011;37521;52.020;-1.740;2023-10-31T00:54:39;1.55;;;0.70;;
51451;SDS011;37521;52.020;-1.740;2023-10-31T00:57:08;4.32;;;1.63;;
51451;SDS011;37521;52.020;-1.740;2023-10-31T00:59:38;1.95;;;1.23;;
51451;SDS011;37521;52.020;-1.740;2023-10-31T01:02:07;2.15;;;0.95;;
51451;SDS011;37521;52.020;-1.740;2023-10-31T01:04:35;1.63;;;1.30;;
51451;SDS011;37521;52.020;-1.740;2023-10-31T01:07:04;1.33;;;1.23;;
51451;SDS011;37521;52.020;-1.740;2023-10-31T01:09:34;0.85;;;0.82;;
51451;SDS011;37521;52.020;-1.740;2023-10-31T01:12:02;2.30;;;1.48;;
51451;SDS011;37521;52.020;-1.740;2023-10-31T01:14:31;1.00;;;0.98;;
51451;SDS011;37521;52.020;-1.740;2023-10-31T01:17:01;3.75;;;1.40;;
51451;SDS011;37521;52.020;-1.740;2023-10-31T01:19:29;2.08;;;0.80;;
51451;SDS011;37521;52.020;-1.740;2023-10-31T01:21:58;1.40;;;1.10;;
51451;SDS011;37521;52.020;-1.740;2023-10-31T01:24:26;2.25;;;0.90;;
51451;SDS011;37521;52.020;-1.740;2023-10-31T01:26:55;2.58;;;1.45;;
51451;SDS011;37521;52.020;-1.740;2023-10-31T01:29:23;1.42;;;1.20;;
51451;SDS011;37521;52.020;-1.740;2023-10-31T01:31:52;1.85;;;1.23;;
51451;SDS011;37521;52.020;-1.740;2023-10-31T01:34:28;1.15;;;0.98;;
51451;SDS011;37521;52.020;-1.740;2023-10-31T01:36:57;0.85;;;0.80;;
51451;SDS011;37521;52.020;-1.740;2023-10-31T01:39:26;1.98;;;1.65;;
51451;SDS011;37521;52.020;-1.740;2023-10-31T01:41:54;1.33;;;1.23;;
51451;SDS011;37521;52.020;-1.740;2023-10-31T01:44:23;3.15;;;0.93;;
51451;SDS011;37521;52.020;-1.740;2023-10-31T01:46:51;8.57;;;1.20;;
51451;SDS011;37521;52.020;-1.740;2023-10-31T01:49:20;0.82;;;0.57;;
51451;SDS011;37521;52.020;-1.740;2023-10-31T01:51:50;1.85;;;0.98;;
51451;SDS011;37521;52.020;-1.740;2023-10-31T01:54:19;1.80;;;1.00;;
51451;SDS011;37521;52.020;-1.740;2023-10-31T01:56:48;1.75;;;1.05;;
51451;SDS011;37521;52.020;-1.740;2023-10-31T01:59:20;2.35;;;0.70;;
51451;SDS011;37521;52.020;-1.740;2023-10-31T02:01:48;1.50;;;1.08;;
51451;SDS011;37521;52.020;-1.740;2023-10-31T02:04:17;2.13;;;0.80;;
51451;SDS011;37521;52.020;-1.740;2023-10-31T02:06:46;1.77;;;1.00;;
51451;SDS011;37521;52.020;-1.740;2023-10-31T02:09:16;2.92;;;1.27;;
51451;SDS011;37521;52.020;-1.740;2023-10-31T02:11:44;1.33;;;1.13;;
51451;SDS011;37521;52.020;-1.740;2023-10-31T02:14:12;1.63;;;1.10;;
51451;SDS011;37521;52.020;-1.740;2023-10-31T02:16:41;1.90;;;0.57;;
51451;SDS011;37521;52.020;-1.740;2023-10-31T02:19:09;1.63;;;1.27;;
51451;SDS011;37521;52.020;-1.740;2023-10-31T02:21:42;3.83;;;1.38;;
51451;SDS011;37521;52.020;-1.740;2023-10-31T02:24:10;1.38;;;0.65;;
51451;SDS011;37521;52.020;-1.740;2023-10-31T02:26:38;1.15;;;0.95;;
51451;SDS011;37521;52.020;-1.740;2023-10-31T02:29:07;1.17;;;0.90;;
51451;SDS011;37521;52.020;-1.740;2023-10-31T02:31:35;1.95;;;0.82;;
51451;SDS011;37521;52.020;-1.740;2023-10-31T02:34:04;1.08;;;1.08;;
51451;SDS011;37521;52.020;-1.740;2023-10-31T02:36:32;2.38;;;1.25;;
51451;SDS011;37521;52.020;-1.740;2023-10-31T02:39:03;2.35;;;0.98;;
51451;SDS011;37521;52.020;-1.740;2023-10-31T02:41:31;7.10;;;1.23;;
51451;SDS011;37521;52.020;-1.740;2023-10-31T02:44:00;1.20;;;1.05;;
51451;SDS011;37521;52.020;-1.740;2023-10-31T02:46:28;0.88;;;0.80;;
51451;SDS011;37521;52.020;-1.740;2023-10-31T02:48:57;1.92;;;1.13;;
51451;SDS011;37521;52.020;-1.740;2023-10-31T02:51:25;1.48;;;1.20;;
51451;SDS011;37521;52.020;-1.740;2023-10-31T02:53:54;1.23;;;0.80;;
51451;SDS011;37521;52.020;-1.740;2023-10-31T02:56:23;1.25;;;1.10;;
51451;SDS011;37521;52.020;-1.740;2023-10-31T02:58:53;1.00;;;0.90;;
51451;SDS011;37521;52.020;-1.740;2023-10-31T03:01:21;1.13;;;1.02;;
51451;SDS011;37521;52.020;-1.740;2023-10-31T03:03:50;0.90;;;0.88;;
51451;SDS011;37521;52.020;-1.740;2023-10-31T03:06:18;2.03;;;1.30;;
51451;SDS011;37521;52.020;-1.740;2023-10-31T03:08:46;3.50;;;1.30;;
51451;SDS011;37521;52.020;-1.740;2023-10-31T03:11:23;1.20;;;1.08;;
51451;SDS011;37521;52.020;-1.740;2023-10-31T03:13:55;2.55;;;1.00;;
51451;SDS011;37521;52.020;-1.740;2023-10-31T03:16:24;1.70;;;1.10;;
51451;SDS011;37521;52.020;-1.740;2023-10-31T03:18:52;0.63;;;0.63;;
51451;SDS011;37521;52.020;-1.740;2023-10-31T03:21:21;1.33;;;1.00;;
51451;SDS011;37521;52.020;-1.740;2023-10-31T03:23:51;2.75;;;0.95;;
51451;SDS011;37521;52.020;-1.740;2023-10-31T03:26:23;1.90;;;1.20;;
51451;SDS011;37521;52.020;-1.740;2023-10-31T03:28:52;3.70;;;1.67;;
51451;SDS011;37521;52.020;-1.740;2023-10-31T03:31:24;1.08;;;0.90;;
51451;SDS011;37521;52.020;-1.740;2023-10-31T03:33:52;1.45;;;1.10;;
51451;SDS011;37521;52.020;-1.740;2023-10-31T03:36:21;4.35;;;1.58;;
51451;SDS011;37521;52.020;-1.740;2023-10-31T03:38:49;1.02;;;0.93;;
51451;SDS011;37521;52.020;-1.740;2023-10-31T03:41:18;1.15;;;0.98;;
51451;SDS011;37521;52.020;-1.740;2023-10-31T03:43:50;0.77;;;0.77;;
51451;SDS011;37521;52.020;-1.740;2023-10-31T03:46:18;1.83;;;1.38;;
51451;SDS011;37521;52.020;-1.740;2023-10-31T03:48:47;1.67;;;0.98;;
51451;SDS011;37521;52.020;-1.740;2023-10-31T03:51:16;2.22;;;1.35;;
51451;SDS011;37521;52.020;-1.740;2023-10-31T03:53:44;1.83;;;0.82;;
51451;SDS011;37521;52.020;-1.740;2023-10-31T03:56:13;1.45;;;0.98;;
51451;SDS011;37521;52.020;-1.740;2023-10-31T03:58:42;2.33;;;1.10;;
51451;SDS011;37521;52.020;-1.740;2023-10-31T04:01:12;1.77;;;0.80;;
51451;SDS011;37521;52.020;-1.740;2023-10-31T04:03:41;1.05;;;0.93;;
51451;SDS011;37521;52.020;-1.740;2023-10-31T04:06:11;1.02;;;0.63;;
51451;SDS011;37521;52.020;-1.740;2023-10-31T04:08:39;2.03;;;1.10;;
51451;SDS011;37521;52.020;-1.740;2023-10-31T04:11:08;1.30;;;0.90;;
51451;SDS011;37521;52.020;-1.740;2023-10-31T04:13:36;1.20;;;0.80;;
51451;SDS011;37521;52.020;-1.740;2023-10-31T04:16:05;1.33;;;1.23;;
51451;SDS011;37521;52.020;-1.740;2023-10-31T04:18:35;0.85;;;0.85;;
51451;SDS011;37521;52.020;-1.740;2023-10-31T04:21:04;1.25;;;0.70;;
51451;SDS011;37521;52.020;-1.740;2023-10-31T04:23:33;1.05;;;0.70;;
51451;SDS011;37521;52.020;-1.740;2023-10-31T04:26:03;2.20;;;0.75;;
51451;SDS011;37521;52.020;-1.740;2023-10-31T04:28:32;1.60;;;0.88;;
51451;SDS011;37521;52.020;-1.740;2023-10-31T04:31:00;1.35;;;1.17;;
51451;SDS011;37521;52.020;-1.740;2023-10-31T04:33:29;1.98;;;0.77;;
51451;SDS011;37521;52.020;-1.740;2023-10-31T04:35:59;2.45;;;0.88;;
51451;SDS011;37521;52.020;-1.740;2023-10-31T04:38:29;1.65;;;0.60;;
51451;SDS011;37521;52.020;-1.740;2023-10-31T04:40:57;1.33;;;0.82;;
51451;SDS011;37521;52.020;-1.740;2023-10-31T04:43:27;0.70;;;0.70;;
51451;SDS011;37521;52.020;-1.740;2023-10-31T04:45:56;1.02;;;0.70;;
51451;SDS011;37521;52.020;-1.740;2023-10-31T04:48:24;0.60;;;0.50;;
51451;SDS011;37521;52.020;-1.740;2023-10-31T04:50:53;3.08;;;0.75;;
51451;SDS011;37521;52.020;-1.740;2023-10-31T04:53:24;2.08;;;0.90;;
51451;SDS011;37521;52.020;-1.740;2023-10-31T04:55:53;1.33;;;0.52;;
51451;SDS011;37521;52.020;-1.740;2023-10-31T04:58:21;2.20;;;0.65;;
51451;SDS011;37521;52.020;-1.740;2023-10-31T05:00:50;1.13;;;0.73;;
51451;SDS011;37521;52.020;-1.740;2023-10-31T05:03:18;1.35;;;0.85;;
51451;SDS011;37521;52.020;-1.740;2023-10-31T05:05:46;1.88;;;0.70;;
51451;SDS011;37521;52.020;-1.740;2023-10-31T05:08:15;1.67;;;0.77;;
51451;SDS011;37521;52.020;-1.740;2023-10-31T05:10:45;0.90;;;0.90;;
51451;SDS011;37521;52.020;-1.740;2023-10-31T05:13:14;0.98;;;0.68;;
51451;SDS011;37521;52.020;-1.740;2023-10-31T05:15:42;0.68;;;0.68;;
51451;SDS011;37521;52.020;-1.740;2023-10-31T05:18:11;1.45;;;0.82;;
51451;SDS011;37521;52.020;-1.740;2023-10-31T05:20:39;3.03;;;1.17;;
51451;SDS011;37521;52.020;-1.740;2023-10-31T05:23:08;2.10;;;0.80;;
51451;SDS011;37521;52.020;-1.740;2023-10-31T05:25:36;0.77;;;0.60;;
51451;SDS011;37521;52.020;-1.740;2023-10-31T05:28:06;1.33;;;0.80;;
51451;SDS011;37521;52.020;-1.740;2023-10-31T05:30:35;1.10;;;1.02;;
51451;SDS011;37521;52.020;-1.740;2023-10-31T05:33:03;2.72;;;0.82;;
51451;SDS011;37521;52.020;-1.740;2023-10-31T05:35:32;2.15;;;1.48;;
51451;SDS011;37521;52.020;-1.740;2023-10-31T05:38:01;4.70;;;1.60;;
51451;SDS011;37521;52.020;-1.740;2023-10-31T05:40:29;1.33;;;1.00;;
51451;SDS011;37521;52.020;-1.740;2023-10-31T05:43:02;1.77;;;1.27;;
51451;SDS011;37521;52.020;-1.740;2023-10-31T05:45:31;2.05;;;1.40;;
51451;SDS011;37521;52.020;-1.740;2023-10-31T05:48:00;1.30;;;1.20;;
51451;SDS011;37521;52.020;-1.740;2023-10-31T05:50:29;1.30;;;1.20;;
51451;SDS011;37521;52.020;-1.740;2023-10-31T05:52:58;2.33;;;1.40;;
51451;SDS011;37521;52.020;-1.740;2023-10-31T05:55:26;1.38;;;1.27;;
51451;SDS011;37521;52.020;-1.740;2023-10-31T05:57:55;1.70;;;1.33;;
51451;SDS011;37521;52.020;-1.740;2023-10-31T06:00:23;3.70;;;1.70;;
51451;SDS011;37521;52.020;-1.740;2023-10-31T06:02:54;3.05;;;1.63;;
51451;SDS011;37521;52.020;-1.740;2023-10-31T06:05:22;3.70;;;1.55;;
51451;SDS011;37521;52.020;-1.740;2023-10-31T06:07:51;3.63;;;2.00;;
51451;SDS011;37521;52.020;-1.740;2023-10-31T06:10:20;3.78;;;1.80;;
51451;SDS011;37521;52.020;-1.740;2023-10-31T06:12:48;5.28;;;1.50;;
51451;SDS011;37521;52.020;-1.740;2023-10-31T06:15:17;3.38;;;1.98;;
51451;SDS011;37521;52.020;-1.740;2023-10-31T06:17:45;1.73;;;1.63;;
51451;SDS011;37521;52.020;-1.740;2023-10-31T06:20:15;2.25;;;1.67;;
51451;SDS011;37521;52.020;-1.740;2023-10-31T06:22:43;4.05;;;2.13;;
51451;SDS011;37521;52.020;-1.740;2023-10-31T06:25:12;4.78;;;2.15;;
51451;SDS011;37521;52.020;-1.740;2023-10-31T06:27:40;3.03;;;2.25;;
51451;SDS011;37521;52.020;-1.740;2023-10-31T06:30:09;2.67;;;1.90;;
51451;SDS011;37521;52.020;-1.740;2023-10-31T06:32:41;6.05;;;2.55;;
51451;SDS011;37521;52.020;-1.740;2023-10-31T06:35:10;2.38;;;2.05;;
51451;SDS011;37521;52.020;-1.740;2023-10-31T06:37:40;3.58;;;2.25;;
51451;SDS011;37521;52.020;-1.740;2023-10-31T06:40:08;2.95;;;1.83;;
51451;SDS011;37521;52.020;-1.740;2023-10-31T06:42:37;2.63;;;1.98;;
51451;SDS011;37521;52.020;-1.740;2023-10-31T06:45:06;2.35;;;2.10;;
51451;SDS011;37521;52.020;-1.740;2023-10-31T06:47:35;4.05;;;2.05;;
51451;SDS011;37521;52.020;-1.740;2023-10-31T06:50:03;3.97;;;2.15;;
51451;SDS011;37521;52.020;-1.740;2023-10-31T06:52:33;4.43;;;1.95;;
51451;SDS011;37521;52.020;-1.740;2023-10-31T06:55:03;3.78;;;2.30;;
51451;SDS011;37521;52.020;-1.740;2023-10-31T06:57:31;2.67;;;2.40;;
51451;SDS011;37521;52.020;-1.740;2023-10-31T07:00:00;6.38;;;1.85;;
51451;SDS011;37521;52.020;-1.740;2023-10-31T07:02:29;3.10;;;1.92;;
51451;SDS011;37521;52.020;-1.740;2023-10-31T07:04:57;2.25;;;1.83;;
51451;SDS011;37521;52.020;-1.740;2023-10-31T07:07:26;2.92;;;1.77;;
51451;SDS011;37521;52.020;-1.740;2023-10-31T07:09:54;2.33;;;1.65;;
51451;SDS011;37521;52.020;-1.740;2023-10-31T07:12:24;6.90;;;2.08;;
51451;SDS011;37521;52.020;-1.740;2023-10-31T07:14:53;1.73;;;1.63;;
51451;SDS011;37521;52.020;-1.740;2023-10-31T07:17:21;3.10;;;1.73;;
51451;SDS011;37521;52.020;-1.740;2023-10-31T07:19:50;2.47;;;2.05;;
51451;SDS011;37521;52.020;-1.740;2023-10-31T07:22:18;4.07;;;2.17;;
51451;SDS011;37521;52.020;-1.740;2023-10-31T07:24:46;2.30;;;1.83;;
51451;SDS011;37521;52.020;-1.740;2023-10-31T07:27:15;2.20;;;1.80;;
51451;SDS011;37521;52.020;-1.740;2023-10-31T07:29:45;2.65;;;1.60;;
51451;SDS011;37521;52.020;-1.740;2023-10-31T07:32:15;2.55;;;1.67;;
51451;SDS011;37521;52.020;-1.740;2023-10-31T07:34:44;1.83;;;1.73;;
51451;SDS011;37521;52.020;-1.740;2023-10-31T07:37:12;2.72;;;1.60;;
51451;SDS011;37521;52.020;-1.740;2023-10-31T07:39:41;2.42;;;1.90;;
51451;SDS011;37521;52.020;-1.740;2023-10-31T07:42:09;3.58;;;1.80;;
51451;SDS011;37521;52.020;-1.740;2023-10-31T07:44:38;4.28;;;2.03;;
51451;SDS011;37521;52.020;-1.740;2023-10-31T07:47:08;2.00;;;1.48;;
51451;SDS011;37521;52.020;-1.740;2023-10-31T07:49:36;3.08;;;1.88;;
51451;SDS011;37521;52.020;-1.740;2023-10-31T07:52:05;2.50;;;1.58;;
51451;SDS011;37521;52.020;-1.740;2023-10-31T07:54:34;2.92;;;2.13;;
51451;SDS011;37521;52.020;-1.740;2023-10-31T07:57:02;3.22;;;1.75;;
51451;SDS011;37521;52.020;-1.740;2023-10-31T07:59:32;3.40;;;2.17;;
51451;SDS011;37521;52.020;-1.740;2023-10-31T08:02:01;2.50;;;1.70;;
51451;SDS011;37521;52.020;-1.740;2023-10-31T08:04:31;2.83;;;1.85;;
51451;SDS011;37521;52.020;-1.740;2023-10-31T08:07:00;2.13;;;1.55;;
51451;SDS011;37521;52.020;-1.740;2023-10-31T08:09:29;1.35;;;1.20;;
51451;SDS011;37521;52.020;-1.740;2023-10-31T08:11:57;1.98;;;1.30;;
51451;SDS011;37521;52.020;-1.740;2023-10-31T08:14:26;2.85;;;1.67;;
51451;SDS011;37521;52.020;-1.740;2023-10-31T08:16:54;2.47;;;1.42;;
51451;SDS011;37521;52.020;-1.740;2023-10-31T08:19:23;1.73;;;1.33;;
51451;SDS011;37521;52.020;-1.740;2023-10-31T08:21:53;1.40;;;1.13;;
51451;SDS011;37521;52.020;-1.740;2023-10-31T08:24:24;1.73;;;1.47;;
51451;SDS011;37521;52.020;-1.740;2023-10-31T08:26:52;2.30;;;1.42;;
51451;SDS011;37521;52.020;-1.740;2023-10-31T08:29:21;1.88;;;1.20;;
51451;SDS011;37521;52.020;-1.740;2023-10-31T08:31:49;1.98;;;1.50;;
51451;SDS011;37521;52.020;-1.740;2023-10-31T08:34:18;1.80;;;1.30;;
51451;SDS011;37521;52.020;-1.740;2023-10-31T08:36:46;2.10;;;1.42;;
51451;SDS011;37521;52.020;-1.740;2023-10-31T08:39:16;2.97;;;1.55;;
51451;SDS011;37521;52.020;-1.740;2023-10-31T08:41:51;3.58;;;1.75;;
51451;SDS011;37521;52.020;-1.740;2023-10-31T08:44:20;1.95;;;1.25;;
51451;SDS011;37521;52.020;-1.740;2023-10-31T08:46:48;3.08;;;1.83;;
51451;SDS011;37521;52.020;-1.740;2023-10-31T08:49:17;1.75;;;1.65;;
51451;SDS011;37521;52.020;-1.740;2023-10-31T08:51:46;2.58;;;1.48;;
51451;SDS011;37521;52.020;-1.740;2023-10-31T08:54:14;4.60;;;1.77;;
51451;SDS011;37521;52.020;-1.740;2023-10-31T08:56:44;2.17;;;1.58;;
51451;SDS011;37521;52.020;-1.740;2023-10-31T08:59:13;2.90;;;1.55;;
51451;SDS011;37521;52.020;-1.740;2023-10-31T09:01:41;2.40;;;1.60;;
51451;SDS011;37521;52.020;-1.740;2023-10-31T09:04:10;1.95;;;1.40;;
51451;SDS011;37521;52.020;-1.740;2023-10-31T09:06:38;3.35;;;1.67;;
51451;SDS011;37521;52.020;-1.740;2023-10-31T09:09:07;1.77;;;1.55;;
51451;SDS011;37521;52.020;-1.740;2023-10-31T09:11:38;1.23;;;1.10;;
51451;SDS011;37521;52.020;-1.740;2023-10-31T09:14:06;1.05;;;0.95;;
51451;SDS011;37521;52.020;-1.740;2023-10-31T09:16:35;4.00;;;1.65;;
51451;SDS011;37521;52.020;-1.740;2023-10-31T09:19:03;1.67;;;1.13;;
51451;SDS011;37521;52.020;-1.740;2023-10-31T09:21:32;1.70;;;1.48;;
51451;SDS011;37521;52.020;-1.740;2023-10-31T09:24:01;2.65;;;1.58;;
51451;SDS011;37521;52.020;-1.740;2023-10-31T09:26:29;2.45;;;1.45;;
51451;SDS011;37521;52.020;-1.740;2023-10-31T09:28:59;4.15;;;1.55;;
51451;SDS011;37521;52.020;-1.740;2023-10-31T09:31:28;1.40;;;1.13;;
51451;SDS011;37521;52.020;-1.740;2023-10-31T09:33:57;2.47;;;1.35;;
51451;SDS011;37521;52.020;-1.740;2023-10-31T09:36:25;3.17;;;1.50;;
51451;SDS011;37521;52.020;-1.740;2023-10-31T09:38:54;1.38;;;1.17;;
51451;SDS011;37521;52.020;-1.740;2023-10-31T09:41:22;2.50;;;1.40;;
51451;SDS011;37521;52.020;-1.740;2023-10-31T09:43:51;2.20;;;1.30;;
51451;SDS011;37521;52.020;-1.740;2023-10-31T09:46:21;0.77;;;0.77;;
51451;SDS011;37521;52.020;-1.740;2023-10-31T09:48:50;1.50;;;1.17;;
51451;SDS011;37521;52.020;-1.740;2023-10-31T09:51:19;1.25;;;1.15;;
51451;SDS011;37521;52.020;-1.740;2023-10-31T09:53:48;1.77;;;1.30;;
51451;SDS011;37521;52.020;-1.740;2023-10-31T09:56:21;1.60;;;1.10;;
51451;SDS011;37521;52.020;-1.740;2023-10-31T09:58:50;1.77;;;1.10;;
51451;SDS011;37521;52.020;-1.740;2023-10-31T10:01:21;1.88;;;0.95;;
51451;SDS011;37521;52.020;-1.740;2023-10-31T10:03:50;1.70;;;1.00;;
51451;SDS011;37521;52.020;-1.740;2023-10-31T10:06:19;1.95;;;1.02;;
51451;SDS011;37521;52.020;-1.740;2023-10-31T10:08:50;1.73;;;1.20;;
51451;SDS011;37521;52.020;-1.740;2023-10-31T10:11:18;2.47;;;1.15;;
51451;SDS011;37521;52.020;-1.740;2023-10-31T10:13:47;1.50;;;1.00;;
51451;SDS011;37521;52.020;-1.740;2023-10-31T10:16:31;1.25;;;1.15;;
51451;SDS011;37521;52.020;-1.740;2023-10-31T10:19:14;0.77;;;0.77;;
51451;SDS011;37521;52.020;-1.740;2023-10-31T10:21:47;3.47;;;0.88;;
51451;SDS011;37521;52.020;-1.740;2023-10-31T10:24:19;0.77;;;0.70;;
51451;SDS011;37521;52.020;-1.740;2023-10-31T10:26:48;1.40;;;0.85;;
51451;SDS011;37521;52.020;-1.740;2023-10-31T10:29:16;0.85;;;0.82;;
51451;SDS011;37521;52.020;-1.740;2023-10-31T10:31:47;0.45;;;0.45;;
51451;SDS011;37521;52.020;-1.740;2023-10-31T10:34:15;0.60;;;0.60;;
51451;SDS011;37521;52.020;-1.740;2023-10-31T10:36:46;0.85;;;0.68;;
51451;SDS011;37521;52.020;-1.740;2023-10-31T10:39:16;0.80;;;0.50;;
51451;SDS011;37521;52.020;-1.740;2023-10-31T10:41:51;2.42;;;0.93;;
51451;SDS011;37521;52.020;-1.740;2023-10-31T10:44:26;1.73;;;0.70;;
51451;SDS011;37521;52.020;-1.740;2023-10-31T10:47:02;0.82;;;0.43;;
51451;SDS011;37521;52.020;-1.740;2023-10-31T10:49:32;1.58;;;0.77;;
51451;SDS011;37521;52.020;-1.740;2023-10-31T10:52:06;0.57;;;0.43;;
51451;SDS011;37521;52.020;-1.740;2023-10-31T10:54:44;0.30;;;0.30;;
51451;SDS011;37521;52.020;-1.740;2023-10-31T10:57:21;2.17;;;0.50;;
51451;SDS011;37521;52.020;-1.740;2023-10-31T10:59:55;0.40;;;0.40;;
51451;SDS011;37521;52.020;-1.740;2023-10-31T11:02:31;0.40;;;0.40;;
51451;SDS011;37521;52.020;-1.740;2023-10-31T11:05:00;0.38;;;0.38;;
51451;SDS011;37521;52.020;-1.740;2023-10-31T11:07:30;0.95;;;0.32;;
51451;SDS011;37521;52.020;-1.740;2023-10-31T11:10:00;0.47;;;0.30;;
51451;SDS011;37521;52.020;-1.740;2023-10-31T11:12:32;0.77;;;0.40;;
51451;SDS011;37521;52.020;-1.740;2023-10-31T11:15:03;0.28;;;0.20;;
51451;SDS011;37521;52.020;-1.740;2023-10-31T11:17:36;0.82;;;0.38;;
51451;SDS011;37521;52.020;-1.740;2023-10-31T11:20:09;0.28;;;0.28;;
51451;SDS011;37521;52.020;-1.740;2023-10-31T11:22:41;0.40;;;0.40;;
51451;SDS011;37521;52.020;-1.740;2023-10-31T11:25:12;0.70;;;0.40;;
51451;SDS011;37521;52.020;-1.740;2023-10-31T11:27:56;0.50;;;0.50;;
51451;SDS011;37521;52.020;-1.740;2023-10-31T11:30:38;2.93;;;0.60;;
51451;SDS011;37521;52.020;-1.740;2023-10-31T11:33:12;0.65;;;0.47;;
51451;SDS011;37521;52.020;-1.740;2023-10-31T11:35:41;0.88;;;0.35;;
51451;SDS011;37521;52.020;-1.740;2023-10-31T11:38:11;0.30;;;0.30;;
51451;SDS011;37521;52.020;-1.740;2023-10-31T11:40:57;0.80;;;0.60;;
51451;SDS011;37521;52.020;-1.740;2023-10-31T11:46:20;1.05;;;0.60;;
51451;SDS011;37521;52.020;-1.740;2023-10-31T11:48:54;0.88;;;0.75;;
51451;SDS011;37521;52.020;-1.740;2023-10-31T11:51:24;0.90;;;0.70;;
51451;SDS011;37521;52.020;-1.740;2023-10-31T11:53:53;2.78;;;1.13;;
51451;SDS011;37521;52.020;-1.740;2023-10-31T11:56:21;1.35;;;0.80;;
51451;SDS011;37521;52.020;-1.740;2023-10-31T11:58:57;0.68;;;0.47;;
51451;SDS011;37521;52.020;-1.740;2023-10-31T12:01:27;2.60;;;1.02;;
51451;SDS011;37521;52.020;-1.740;2023-10-31T12:03:57;1.75;;;1.08;;
51451;SDS011;37521;52.020;-1.740;2023-10-31T12:06:25;1.40;;;0.85;;
51451;SDS011;37521;52.020;-1.740;2023-10-31T12:08:58;1.70;;;1.10;;
51451;SDS011;37521;52.020;-1.740;2023-10-31T12:11:27;2.75;;;1.10;;
51451;SDS011;37521;52.020;-1.740;2023-10-31T12:13:57;2.95;;;1.65;;
51451;SDS011;37521;52.020;-1.740;2023-10-31T12:16:28;1.52;;;1.42;;
51451;SDS011;37521;52.020;-1.740;2023-10-31T12:18:59;1.95;;;1.23;;
51451;SDS011;37521;52.020;-1.740;2023-10-31T12:21:35;1.90;;;1.55;;
51451;SDS011;37521;52.020;-1.740;2023-10-31T12:24:10;1.38;;;1.20;;
51451;SDS011;37521;52.020;-1.740;2023-10-31T12:26:40;1.02;;;1.02;;
51451;SDS011;37521;52.020;-1.740;2023-10-31T12:29:09;1.55;;;1.30;;
51451;SDS011;37521;52.020;-1.740;2023-10-31T12:31:40;1.92;;;1.40;;
51451;SDS011;37521;52.020;-1.740;2023-10-31T12:34:12;2.25;;;1.65;;
51451;SDS011;37521;52.020;-1.740;2023-10-31T12:36:41;2.40;;;1.60;;
51451;SDS011;37521;52.020;-1.740;2023-10-31T12:39:11;2.00;;;1.50;;
51451;SDS011;37521;52.020;-1.740;2023-10-31T12:41:40;1.95;;;1.38;;
51451;SDS011;37521;52.020;-1.740;2023-10-31T12:44:09;2.25;;;1.67;;
51451;SDS011;37521;52.020;-1.740;2023-10-31T12:46:41;1.30;;;1.20;;
51451;SDS011;37521;52.020;-1.740;2023-10-31T12:49:12;3.72;;;1.80;;
51451;SDS011;37521;52.020;-1.740;2023-10-31T12:51:57;1.58;;;1.48;;
51451;SDS011;37521;52.020;-1.740;2023-10-31T12:54:28;1.50;;;1.40;;
51451;SDS011;37521;52.020;-1.740;2023-10-31T12:57:01;1.45;;;1.30;;
51451;SDS011;37521;52.020;-1.740;2023-10-31T12:59:31;1.20;;;1.10;;
51451;SDS011;37521;52.020;-1.740;2023-10-31T13:02:00;3.10;;;1.45;;
51451;SDS011;37521;52.020;-1.740;2023-10-31T13:04:31;1.67;;;1.27;;
51451;SDS011;37521;52.020;-1.740;2023-10-31T13:07:02;6.30;;;1.80;;
51451;SDS011;37521;52.020;-1.740;2023-10-31T13:09:31;1.98;;;1.10;;
51451;SDS011;37521;52.020;-1.740;2023-10-31T13:12:02;0.82;;;0.77;;
51451;SDS011;37521;52.020;-1.740;2023-10-31T13:14:32;1.63;;;1.08;;
51451;SDS011;37521;52.020;-1.740;2023-10-31T13:17:01;1.60;;;1.35;;
51451;SDS011;37521;52.020;-1.740;2023-10-31T13:19:31;1.38;;;0.88;;
51451;SDS011;37521;52.020;-1.740;2023-10-31T13:22:01;1.75;;;1.02;;
51451;SDS011;37521;52.020;-1.740;2023-10-31T13:24:30;1.33;;;0.70;;
51451;SDS011;37521;52.020;-1.740;2023-10-31T13:26:58;1.65;;;0.73;;
51451;SDS011;37521;52.020;-1.740;2023-10-31T13:29:29;0.60;;;0.60;;
51451;SDS011;37521;52.020;-1.740;2023-10-31T13:31:58;4.72;;;0.60;;
51451;SDS011;37521;52.020;-1.740;2023-10-31T13:34:26;0.63;;;0.63;;
51451;SDS011;37521;52.020;-1.740;2023-10-31T13:37:00;2.35;;;0.77;;
51451;SDS011;37521;52.020;-1.740;2023-10-31T13:39:29;1.15;;;0.40;;
51451;SDS011;37521;52.020;-1.740;2023-10-31T13:41:58;1.95;;;0.50;;
51451;SDS011;37521;52.020;-1.740;2023-10-31T13:44:27;2.75;;;0.60;;
51451;SDS011;37521;52.020;-1.740;2023-10-31T13:46:55;0.70;;;0.30;;
51451;SDS011;37521;52.020;-1.740;2023-10-31T13:49:24;2.92;;;0.50;;
51451;SDS011;37521;52.020;-1.740;2023-10-31T13:51:52;2.05;;;0.60;;
51451;SDS011;37521;52.020;-1.740;2023-10-31T13:54:22;0.55;;;0.22;;
51451;SDS011;37521;52.020;-1.740;2023-10-31T13:56:51;0.30;;;0.30;;
51451;SDS011;37521;52.020;-1.740;2023-10-31T13:59:20;0.63;;;0.30;;
51451;SDS011;37521;52.020;-1.740;2023-10-31T14:01:48;0.30;;;0.30;;
51451;SDS011;37521;52.020;-1.740;2023-10-31T14:04:17;1.40;;;0.25;;
51451;SDS011;37521;52.020;-1.740;2023-10-31T14:06:47;0.22;;;0.22;;
51451;SDS011;37521;52.020;-1.740;2023-10-31T14:09:16;0.98;;;0.40;;
51451;SDS011;37521;52.020;-1.740;2023-10-31T14:11:46;0.77;;;0.47;;
51451;SDS011;37521;52.020;-1.740;2023-10-31T14:14:14;2.17;;;0.40;;
51451;SDS011;37521;52.020;-1.740;2023-10-31T14:16:42;0.40;;;0.40;;
51451;SDS011;37521;52.020;-1.740;2023-10-31T14:19:12;0.28;;;0.28;;
51451;SDS011;37521;52.020;-1.740;2023-10-31T14:21:40;0.10;;;0.10;;
51451;SDS011;37521;52.020;-1.740;2023-10-31T14:24:10;0.30;;;0.20;;
51451;SDS011;37521;52.020;-1.740;2023-10-31T14:26:39;1.38;;;0.50;;
51451;SDS011;37521;52.020;-1.740;2023-10-31T14:29:12;0.60;;;0.40;;
51451;SDS011;37521;52.020;-1.740;2023-10-31T14:31:40;0.10;;;0.10;;
51451;SDS011;37521;52.020;-1.740;2023-10-31T14:34:10;0.40;;;0.40;;
51451;SDS011;37521;52.020;-1.740;2023-10-31T14:36:39;1.00;;;0.40;;
51451;SDS011;37521;52.020;-1.740;2023-10-31T14:39:07;0.65;;;0.43;;
51451;SDS011;37521;52.020;-1.740;2023-10-31T14:41:36;0.85;;;0.30;;
51451;SDS011;37521;52.020;-1.740;2023-10-31T14:44:05;0.50;;;0.40;;
51451;SDS011;37521;52.020;-1.740;2023-10-31T14:46:37;0.38;;;0.38;;
51451;SDS011;37521;52.020;-1.740;2023-10-31T14:49:06;0.30;;;0.30;;